sensor_id;sensor_type;location;lat;lon;timestamp;temperature;humidity
55213;DHT22;41083;52.932;6.674;2023-07-08T00:00:15;18.10;91.30
55213;DHT22;41083;52.932;6.674;2023-07-08T00:02:42;18.20;91.50
55213;DHT22;41083;52.932;6.674;2023-07-08T00:05:09;18.10;91.50
55213;DHT22;41083;52.932;6.674;2023-07-08T00:07:36;18.10;91.80
55213;DHT22;41083;52.932;6.674;2023-07-08T00:10:07;18.10;91.60
55213;DHT22;41083;52.932;6.674;2023-07-08T00:12:34;18.10;91.60
55213;DHT22;41083;52.932;6.674;2023-07-08T00:15:00;18.10;91.70
55213;DHT22;41083;52.932;6.674;2023-07-08T00:17:25;18.00;91.60
55213;DHT22;41083;52.932;6.674;2023-07-08T00:19:51;18.00;91.70
55213;DHT22;41083;52.932;6.674;2023-07-08T00:22:19;18.00;91.80
55213;DHT22;41083;52.932;6.674;2023-07-08T00:24:45;18.00;91.90
55213;DHT22;41083;52.932;6.674;2023-07-08T00:27:12;17.90;91.90
55213;DHT22;41083;52.932;6.674;2023-07-08T00:29:38;17.90;92.30
55213;DHT22;41083;52.932;6.674;2023-07-08T00:32:15;17.90;92.00
55213;DHT22;41083;52.932;6.674;2023-07-08T00:34:41;17.90;92.30
55213;DHT22;41083;52.932;6.674;2023-07-08T00:37:13;17.90;92.20
55213;DHT22;41083;52.932;6.674;2023-07-08T00:39:39;17.80;92.30
55213;DHT22;41083;52.932;6.674;2023-07-08T00:42:18;17.90;92.30
55213;DHT22;41083;52.932;6.674;2023-07-08T00:44:44;17.80;92.50
55213;DHT22;41083;52.932;6.674;2023-07-08T00:47:11;17.70;92.40
55213;DHT22;41083;52.932;6.674;2023-07-08T00:50:02;17.80;92.50
55213;DHT22;41083;52.932;6.674;2023-07-08T00:52:28;17.80;92.60
55213;DHT22;41083;52.932;6.674;2023-07-08T00:54:59;17.70;92.70
55213;DHT22;41083;52.932;6.674;2023-07-08T00:57:30;17.70;92.70
55213;DHT22;41083;52.932;6.674;2023-07-08T01:00:04;17.70;92.80
55213;DHT22;41083;52.932;6.674;2023-07-08T01:02:33;17.70;92.90
55213;DHT22;41083;52.932;6.674;2023-07-08T01:05:12;17.70;93.00
55213;DHT22;41083;52.932;6.674;2023-07-08T01:07:42;17.60;93.20
55213;DHT22;41083;52.932;6.674;2023-07-08T01:10:12;17.60;93.10
55213;DHT22;41083;52.932;6.674;2023-07-08T01:12:43;17.60;93.20
55213;DHT22;41083;52.932;6.674;2023-07-08T01:15:10;17.60;93.30
55213;DHT22;41083;52.932;6.674;2023-07-08T01:17:36;17.50;93.40
55213;DHT22;41083;52.932;6.674;2023-07-08T01:20:05;17.50;93.30
55213;DHT22;41083;52.932;6.674;2023-07-08T01:22:35;17.50;93.50
55213;DHT22;41083;52.932;6.674;2023-07-08T01:25:02;17.50;93.50
55213;DHT22;41083;52.932;6.674;2023-07-08T01:27:31;17.50;93.60
55213;DHT22;41083;52.932;6.674;2023-07-08T01:29:59;17.50;93.70
55213;DHT22;41083;52.932;6.674;2023-07-08T01:32:24;17.40;93.70
55213;DHT22;41083;52.932;6.674;2023-07-08T01:34:52;17.40;93.80
55213;DHT22;41083;52.932;6.674;2023-07-08T01:37:48;17.40;93.80
55213;DHT22;41083;52.932;6.674;2023-07-08T01:40:31;17.40;94.60
55213;DHT22;41083;52.932;6.674;2023-07-08T01:42:58;17.30;94.00
55213;DHT22;41083;52.932;6.674;2023-07-08T01:45:27;17.40;93.80
55213;DHT22;41083;52.932;6.674;2023-07-08T01:48:20;17.30;93.90
55213;DHT22;41083;52.932;6.674;2023-07-08T01:50:56;17.30;94.10
55213;DHT22;41083;52.932;6.674;2023-07-08T01:53:40;17.30;94.10
55213;DHT22;41083;52.932;6.674;2023-07-08T01:56:08;17.30;94.20
55213;DHT22;41083;52.932;6.674;2023-07-08T01:58:33;17.30;94.20
55213;DHT22;41083;52.932;6.674;2023-07-08T02:00:59;17.30;94.20
55213;DHT22;41083;52.932;6.674;2023-07-08T02:03:26;17.20;94.30
55213;DHT22;41083;52.932;6.674;2023-07-08T02:05:52;17.20;94.30
55213;DHT22;41083;52.932;6.674;2023-07-08T02:08:18;17.20;94.40
55213;DHT22;41083;52.932;6.674;2023-07-08T02:10:54;17.20;94.50
55213;DHT22;41083;52.932;6.674;2023-07-08T02:13:21;17.10;94.60
55213;DHT22;41083;52.932;6.674;2023-07-08T02:15:47;17.10;94.60
55213;DHT22;41083;52.932;6.674;2023-07-08T02:18:13;17.10;94.70
55213;DHT22;41083;52.932;6.674;2023-07-08T02:20:39;17.10;94.70
55213;DHT22;41083;52.932;6.674;2023-07-08T02:23:04;17.10;94.80
55213;DHT22;41083;52.932;6.674;2023-07-08T02:25:30;17.10;94.90
55213;DHT22;41083;52.932;6.674;2023-07-08T02:27:56;17.10;94.90
55213;DHT22;41083;52.932;6.674;2023-07-08T02:30:25;17.00;94.90
55213;DHT22;41083;52.932;6.674;2023-07-08T02:32:51;17.00;95.00
55213;DHT22;41083;52.932;6.674;2023-07-08T02:35:27;17.00;95.10
55213;DHT22;41083;52.932;6.674;2023-07-08T02:37:54;16.90;95.10
55213;DHT22;41083;52.932;6.674;2023-07-08T02:40:20;16.90;95.20
55213;DHT22;41083;52.932;6.674;2023-07-08T02:42:46;16.90;95.20
55213;DHT22;41083;52.932;6.674;2023-07-08T02:45:12;16.90;95.30
55213;DHT22;41083;52.932;6.674;2023-07-08T02:47:38;16.90;95.30
55213;DHT22;41083;52.932;6.674;2023-07-08T02:50:04;16.90;95.30
55213;DHT22;41083;52.932;6.674;2023-07-08T02:52:30;16.90;95.40
55213;DHT22;41083;52.932;6.674;2023-07-08T02:54:56;16.90;95.40
55213;DHT22;41083;52.932;6.674;2023-07-08T02:57:21;16.80;95.40
55213;DHT22;41083;52.932;6.674;2023-07-08T02:59:47;16.80;95.40
55213;DHT22;41083;52.932;6.674;2023-07-08T03:02:12;16.80;95.50
55213;DHT22;41083;52.932;6.674;2023-07-08T03:04:39;16.80;95.60
55213;DHT22;41083;52.932;6.674;2023-07-08T03:07:06;16.80;95.60
55213;DHT22;41083;52.932;6.674;2023-07-08T03:09:31;16.80;95.70
55213;DHT22;41083;52.932;6.674;2023-07-08T03:11:58;16.80;95.70
55213;DHT22;41083;52.932;6.674;2023-07-08T03:14:24;16.70;95.80
55213;DHT22;41083;52.932;6.674;2023-07-08T03:16:50;16.70;95.80
55213;DHT22;41083;52.932;6.674;2023-07-08T03:19:15;16.70;95.90
55213;DHT22;41083;52.932;6.674;2023-07-08T03:21:42;16.70;96.00
55213;DHT22;41083;52.932;6.674;2023-07-08T03:24:10;16.70;96.00
55213;DHT22;41083;52.932;6.674;2023-07-08T03:26:38;16.70;96.10
55213;DHT22;41083;52.932;6.674;2023-07-08T03:29:05;16.60;96.10
55213;DHT22;41083;52.932;6.674;2023-07-08T03:31:30;16.60;96.10
55213;DHT22;41083;52.932;6.674;2023-07-08T03:33:56;16.60;96.20
55213;DHT22;41083;52.932;6.674;2023-07-08T03:36:21;16.60;96.30
55213;DHT22;41083;52.932;6.674;2023-07-08T03:38:55;16.60;96.20
55213;DHT22;41083;52.932;6.674;2023-07-08T03:41:21;16.60;96.40
55213;DHT22;41083;52.932;6.674;2023-07-08T03:43:47;16.60;96.40
55213;DHT22;41083;52.932;6.674;2023-07-08T03:46:14;16.60;96.40
55213;DHT22;41083;52.932;6.674;2023-07-08T03:48:40;16.60;96.40
55213;DHT22;41083;52.932;6.674;2023-07-08T03:51:20;16.60;96.50
55213;DHT22;41083;52.932;6.674;2023-07-08T03:53:46;16.60;96.80
55213;DHT22;41083;52.932;6.674;2023-07-08T03:56:13;16.60;96.60
55213;DHT22;41083;52.932;6.674;2023-07-08T03:58:39;16.60;96.70
55213;DHT22;41083;52.932;6.674;2023-07-08T04:01:05;16.50;96.70
55213;DHT22;41083;52.932;6.674;2023-07-08T04:03:35;16.50;96.70
55213;DHT22;41083;52.932;6.674;2023-07-08T04:06:00;16.60;96.70
55213;DHT22;41083;52.932;6.674;2023-07-08T04:08:26;16.50;96.80
55213;DHT22;41083;52.932;6.674;2023-07-08T04:10:51;16.50;96.80
55213;DHT22;41083;52.932;6.674;2023-07-08T04:13:17;16.60;96.90
55213;DHT22;41083;52.932;6.674;2023-07-08T04:15:56;16.60;96.90
55213;DHT22;41083;52.932;6.674;2023-07-08T04:18:22;16.60;97.00
55213;DHT22;41083;52.932;6.674;2023-07-08T04:20:48;16.60;96.90
55213;DHT22;41083;52.932;6.674;2023-07-08T04:23:21;16.60;96.80
55213;DHT22;41083;52.932;6.674;2023-07-08T04:25:49;16.60;96.90
55213;DHT22;41083;52.932;6.674;2023-07-08T04:28:16;16.60;96.90
55213;DHT22;41083;52.932;6.674;2023-07-08T04:30:42;16.70;97.00
55213;DHT22;41083;52.932;6.674;2023-07-08T04:33:14;16.70;97.00
55213;DHT22;41083;52.932;6.674;2023-07-08T04:35:41;16.70;97.10
55213;DHT22;41083;52.932;6.674;2023-07-08T04:38:18;16.70;97.00
55213;DHT22;41083;52.932;6.674;2023-07-08T04:40:47;16.70;97.10
55213;DHT22;41083;52.932;6.674;2023-07-08T04:43:13;16.70;97.10
55213;DHT22;41083;52.932;6.674;2023-07-08T04:45:41;16.80;97.20
55213;DHT22;41083;52.932;6.674;2023-07-08T04:48:12;16.80;97.10
55213;DHT22;41083;52.932;6.674;2023-07-08T04:50:43;16.80;97.20
55213;DHT22;41083;52.932;6.674;2023-07-08T04:53:09;16.80;97.20
55213;DHT22;41083;52.932;6.674;2023-07-08T04:55:42;16.80;97.10
55213;DHT22;41083;52.932;6.674;2023-07-08T04:58:09;16.90;97.20
55213;DHT22;41083;52.932;6.674;2023-07-08T05:00:34;16.90;97.10
55213;DHT22;41083;52.932;6.674;2023-07-08T05:03:00;16.90;97.10
55213;DHT22;41083;52.932;6.674;2023-07-08T05:05:26;16.90;97.20
55213;DHT22;41083;52.932;6.674;2023-07-08T05:07:51;16.90;97.20
55213;DHT22;41083;52.932;6.674;2023-07-08T05:10:18;16.90;97.20
55213;DHT22;41083;52.932;6.674;2023-07-08T05:12:44;17.00;97.20
55213;DHT22;41083;52.932;6.674;2023-07-08T05:15:11;17.00;97.30
55213;DHT22;41083;52.932;6.674;2023-07-08T05:17:37;16.90;97.20
55213;DHT22;41083;52.932;6.674;2023-07-08T05:20:05;17.00;97.30
55213;DHT22;41083;52.932;6.674;2023-07-08T05:22:31;17.00;97.30
55213;DHT22;41083;52.932;6.674;2023-07-08T05:24:57;17.00;97.30
55213;DHT22;41083;52.932;6.674;2023-07-08T05:27:23;17.00;97.40
55213;DHT22;41083;52.932;6.674;2023-07-08T05:29:50;17.10;97.40
55213;DHT22;41083;52.932;6.674;2023-07-08T05:32:16;17.10;97.40
55213;DHT22;41083;52.932;6.674;2023-07-08T05:34:43;17.10;97.50
55213;DHT22;41083;52.932;6.674;2023-07-08T05:37:09;17.10;97.50
55213;DHT22;41083;52.932;6.674;2023-07-08T05:39:35;17.10;97.50
55213;DHT22;41083;52.932;6.674;2023-07-08T05:42:00;17.10;97.50
55213;DHT22;41083;52.932;6.674;2023-07-08T05:44:26;17.20;97.50
55213;DHT22;41083;52.932;6.674;2023-07-08T05:46:52;17.20;97.50
55213;DHT22;41083;52.932;6.674;2023-07-08T05:49:17;17.20;97.50
55213;DHT22;41083;52.932;6.674;2023-07-08T05:51:46;17.20;97.50
55213;DHT22;41083;52.932;6.674;2023-07-08T05:54:12;17.30;97.50
55213;DHT22;41083;52.932;6.674;2023-07-08T05:56:38;17.30;97.60
55213;DHT22;41083;52.932;6.674;2023-07-08T05:59:04;17.40;97.60
55213;DHT22;41083;52.932;6.674;2023-07-08T06:01:30;17.30;97.60
55213;DHT22;41083;52.932;6.674;2023-07-08T06:03:56;17.40;97.60
55213;DHT22;41083;52.932;6.674;2023-07-08T06:06:25;17.40;97.60
55213;DHT22;41083;52.932;6.674;2023-07-08T06:08:52;17.50;97.60
55213;DHT22;41083;52.932;6.674;2023-07-08T06:11:18;17.50;97.50
55213;DHT22;41083;52.932;6.674;2023-07-08T06:13:43;17.50;97.40
55213;DHT22;41083;52.932;6.674;2023-07-08T06:16:09;17.60;97.50
55213;DHT22;41083;52.932;6.674;2023-07-08T06:18:35;17.60;97.30
55213;DHT22;41083;52.932;6.674;2023-07-08T06:21:01;17.70;97.30
55213;DHT22;41083;52.932;6.674;2023-07-08T06:23:27;17.70;97.30
55213;DHT22;41083;52.932;6.674;2023-07-08T06:25:53;18.10;97.00
55213;DHT22;41083;52.932;6.674;2023-07-08T06:28:18;18.20;96.70
55213;DHT22;41083;52.932;6.674;2023-07-08T06:30:45;18.20;96.60
55213;DHT22;41083;52.932;6.674;2023-07-08T06:33:11;18.20;96.70
55213;DHT22;41083;52.932;6.674;2023-07-08T06:35:38;18.30;96.80
55213;DHT22;41083;52.932;6.674;2023-07-08T06:38:03;18.80;97.10
55213;DHT22;41083;52.932;6.674;2023-07-08T06:40:29;19.80;95.60
55213;DHT22;41083;52.932;6.674;2023-07-08T06:42:55;21.10;94.20
55213;DHT22;41083;52.932;6.674;2023-07-08T06:45:21;22.20;92.40
55213;DHT22;41083;52.932;6.674;2023-07-08T06:47:46;23.20;91.10
55213;DHT22;41083;52.932;6.674;2023-07-08T06:50:12;24.00;89.40
55213;DHT22;41083;52.932;6.674;2023-07-08T06:52:38;24.60;86.80
55213;DHT22;41083;52.932;6.674;2023-07-08T06:55:07;25.20;83.60
55213;DHT22;41083;52.932;6.674;2023-07-08T06:57:33;25.50;80.50
55213;DHT22;41083;52.932;6.674;2023-07-08T06:59:59;25.10;80.20
55213;DHT22;41083;52.932;6.674;2023-07-08T07:02:26;24.60;81.00
55213;DHT22;41083;52.932;6.674;2023-07-08T07:04:51;23.90;82.50
55213;DHT22;41083;52.932;6.674;2023-07-08T07:07:17;23.40;84.10
55213;DHT22;41083;52.932;6.674;2023-07-08T07:09:43;23.00;84.90
55213;DHT22;41083;52.932;6.674;2023-07-08T07:12:08;22.60;86.10
55213;DHT22;41083;52.932;6.674;2023-07-08T07:14:34;22.30;87.10
55213;DHT22;41083;52.932;6.674;2023-07-08T07:17:00;22.00;87.50
55213;DHT22;41083;52.932;6.674;2023-07-08T07:19:26;21.80;88.10
55213;DHT22;41083;52.932;6.674;2023-07-08T07:21:51;21.60;88.50
55213;DHT22;41083;52.932;6.674;2023-07-08T07:24:17;21.40;89.10
55213;DHT22;41083;52.932;6.674;2023-07-08T07:26:43;21.30;89.40
55213;DHT22;41083;52.932;6.674;2023-07-08T07:29:09;21.20;90.00
55213;DHT22;41083;52.932;6.674;2023-07-08T07:31:35;21.10;90.30
55213;DHT22;41083;52.932;6.674;2023-07-08T07:34:01;21.00;90.50
55213;DHT22;41083;52.932;6.674;2023-07-08T07:36:27;20.90;90.60
55213;DHT22;41083;52.932;6.674;2023-07-08T07:38:54;20.90;90.70
55213;DHT22;41083;52.932;6.674;2023-07-08T07:41:20;20.90;91.00
55213;DHT22;41083;52.932;6.674;2023-07-08T07:43:46;20.80;91.20
55213;DHT22;41083;52.932;6.674;2023-07-08T07:46:12;20.80;91.30
55213;DHT22;41083;52.932;6.674;2023-07-08T07:48:37;20.80;91.40
55213;DHT22;41083;52.932;6.674;2023-07-08T07:51:04;20.80;91.60
55213;DHT22;41083;52.932;6.674;2023-07-08T07:53:30;20.80;91.50
55213;DHT22;41083;52.932;6.674;2023-07-08T07:56:00;20.80;91.50
55213;DHT22;41083;52.932;6.674;2023-07-08T07:58:26;20.80;91.50
55213;DHT22;41083;52.932;6.674;2023-07-08T08:00:52;20.80;91.60
55213;DHT22;41083;52.932;6.674;2023-07-08T08:03:17;20.80;91.80
55213;DHT22;41083;52.932;6.674;2023-07-08T08:05:43;20.80;91.80
55213;DHT22;41083;52.932;6.674;2023-07-08T08:08:09;20.80;91.70
55213;DHT22;41083;52.932;6.674;2023-07-08T08:10:35;20.80;91.50
55213;DHT22;41083;52.932;6.674;2023-07-08T08:13:01;20.80;91.50
55213;DHT22;41083;52.932;6.674;2023-07-08T08:15:27;20.80;91.50
55213;DHT22;41083;52.932;6.674;2023-07-08T08:17:52;20.90;91.50
55213;DHT22;41083;52.932;6.674;2023-07-08T08:20:22;20.90;91.70
55213;DHT22;41083;52.932;6.674;2023-07-08T08:22:49;20.90;91.60
55213;DHT22;41083;52.932;6.674;2023-07-08T08:25:16;20.90;91.50
55213;DHT22;41083;52.932;6.674;2023-07-08T08:27:42;20.90;91.50
55213;DHT22;41083;52.932;6.674;2023-07-08T08:30:09;21.00;91.40
55213;DHT22;41083;52.932;6.674;2023-07-08T08:32:35;21.00;91.50
55213;DHT22;41083;52.932;6.674;2023-07-08T08:35:01;21.00;91.60
55213;DHT22;41083;52.932;6.674;2023-07-08T08:37:26;21.00;91.60
55213;DHT22;41083;52.932;6.674;2023-07-08T08:39:52;21.10;91.80
55213;DHT22;41083;52.932;6.674;2023-07-08T08:42:34;21.10;91.80
55213;DHT22;41083;52.932;6.674;2023-07-08T08:45:01;21.10;91.90
55213;DHT22;41083;52.932;6.674;2023-07-08T08:47:40;21.20;92.00
55213;DHT22;41083;52.932;6.674;2023-07-08T08:50:35;21.20;91.80
55213;DHT22;41083;52.932;6.674;2023-07-08T08:53:04;21.30;91.70
55213;DHT22;41083;52.932;6.674;2023-07-08T08:55:30;21.30;91.80
55213;DHT22;41083;52.932;6.674;2023-07-08T08:58:02;21.40;91.90
55213;DHT22;41083;52.932;6.674;2023-07-08T09:03:36;21.50;92.30
55213;DHT22;41083;52.932;6.674;2023-07-08T09:06:16;21.50;92.30
55213;DHT22;41083;52.932;6.674;2023-07-08T09:08:43;21.60;91.80
55213;DHT22;41083;52.932;6.674;2023-07-08T09:13:44;21.70;91.90
55213;DHT22;41083;52.932;6.674;2023-07-08T09:16:14;21.70;91.90
55213;DHT22;41083;52.932;6.674;2023-07-08T09:24:12;21.80;91.90
55213;DHT22;41083;52.932;6.674;2023-07-08T09:26:40;21.80;91.90
55213;DHT22;41083;52.932;6.674;2023-07-08T09:29:10;21.80;91.90
55213;DHT22;41083;52.932;6.674;2023-07-08T09:31:39;21.90;91.90
55213;DHT22;41083;52.932;6.674;2023-07-08T09:36:34;22.00;91.90
55213;DHT22;41083;52.932;6.674;2023-07-08T09:39:00;22.00;92.00
55213;DHT22;41083;52.932;6.674;2023-07-08T09:41:32;22.10;91.90
55213;DHT22;41083;52.932;6.674;2023-07-08T09:46:39;22.20;91.90
55213;DHT22;41083;52.932;6.674;2023-07-08T09:49:14;22.20;91.90
55213;DHT22;41083;52.932;6.674;2023-07-08T09:51:41;22.30;91.80
55213;DHT22;41083;52.932;6.674;2023-07-08T09:54:07;22.30;91.80
55213;DHT22;41083;52.932;6.674;2023-07-08T09:56:33;22.40;91.80
55213;DHT22;41083;52.932;6.674;2023-07-08T09:58:59;22.50;91.70
55213;DHT22;41083;52.932;6.674;2023-07-08T10:01:26;22.50;91.60
55213;DHT22;41083;52.932;6.674;2023-07-08T10:03:58;22.60;91.60
55213;DHT22;41083;52.932;6.674;2023-07-08T10:06:31;22.60;91.40
55213;DHT22;41083;52.932;6.674;2023-07-08T10:09:03;22.70;91.40
55213;DHT22;41083;52.932;6.674;2023-07-08T10:11:31;22.70;91.40
55213;DHT22;41083;52.932;6.674;2023-07-08T10:14:23;22.80;91.40
55213;DHT22;41083;52.932;6.674;2023-07-08T10:16:51;22.80;91.00
55213;DHT22;41083;52.932;6.674;2023-07-08T10:19:18;22.90;90.80
55213;DHT22;41083;52.932;6.674;2023-07-08T10:27:21;23.10;90.30
55213;DHT22;41083;52.932;6.674;2023-07-08T10:33:05;23.20;90.30
55213;DHT22;41083;52.932;6.674;2023-07-08T10:35:44;23.30;90.00
55213;DHT22;41083;52.932;6.674;2023-07-08T10:41:04;23.30;89.50
55213;DHT22;41083;52.932;6.674;2023-07-08T10:55:32;23.60;89.00
55213;DHT22;41083;52.932;6.674;2023-07-08T11:01:05;23.70;88.20
55213;DHT22;41083;52.932;6.674;2023-07-08T11:04:53;23.80;87.20
55213;DHT22;41083;52.932;6.674;2023-07-08T11:07:12;23.80;85.80
55213;DHT22;41083;52.932;6.674;2023-07-08T11:09:50;23.80;85.50
55213;DHT22;41083;52.932;6.674;2023-07-08T11:12:34;23.90;86.60
55213;DHT22;41083;52.932;6.674;2023-07-08T11:15:23;23.90;86.20
55213;DHT22;41083;52.932;6.674;2023-07-08T11:20:57;24.10;86.70
55213;DHT22;41083;52.932;6.674;2023-07-08T11:26:20;24.10;84.80
55213;DHT22;41083;52.932;6.674;2023-07-08T11:28:51;24.20;84.10
55213;DHT22;41083;52.932;6.674;2023-07-08T11:31:19;24.30;83.70
55213;DHT22;41083;52.932;6.674;2023-07-08T11:33:45;24.40;83.60
55213;DHT22;41083;52.932;6.674;2023-07-08T11:36:13;24.40;83.50
55213;DHT22;41083;52.932;6.674;2023-07-08T11:38:51;24.40;82.30
55213;DHT22;41083;52.932;6.674;2023-07-08T11:41:19;24.50;82.40
55213;DHT22;41083;52.932;6.674;2023-07-08T11:43:57;24.60;82.50
55213;DHT22;41083;52.932;6.674;2023-07-08T11:46:28;24.60;80.70
55213;DHT22;41083;52.932;6.674;2023-07-08T11:49:00;24.70;80.70
55213;DHT22;41083;52.932;6.674;2023-07-08T11:51:30;24.70;80.00
55213;DHT22;41083;52.932;6.674;2023-07-08T11:54:12;24.70;79.60
55213;DHT22;41083;52.932;6.674;2023-07-08T11:56:59;24.80;79.60
55213;DHT22;41083;52.932;6.674;2023-07-08T11:59:30;24.90;77.80
55213;DHT22;41083;52.932;6.674;2023-07-08T12:02:18;24.90;78.40
55213;DHT22;41083;52.932;6.674;2023-07-08T12:05:02;24.90;77.40
55213;DHT22;41083;52.932;6.674;2023-07-08T12:07:42;24.90;76.10
55213;DHT22;41083;52.932;6.674;2023-07-08T12:10:18;25.00;75.20
55213;DHT22;41083;52.932;6.674;2023-07-08T12:12:45;25.10;75.50
55213;DHT22;41083;52.932;6.674;2023-07-08T12:15:16;25.10;75.90
55213;DHT22;41083;52.932;6.674;2023-07-08T12:17:43;25.10;75.10
55213;DHT22;41083;52.932;6.674;2023-07-08T12:20:20;25.20;74.80
55213;DHT22;41083;52.932;6.674;2023-07-08T12:22:47;25.20;73.10
55213;DHT22;41083;52.932;6.674;2023-07-08T12:25:19;25.30;73.70
55213;DHT22;41083;52.932;6.674;2023-07-08T12:27:46;25.30;72.60
55213;DHT22;41083;52.932;6.674;2023-07-08T12:30:13;25.30;72.60
55213;DHT22;41083;52.932;6.674;2023-07-08T12:32:40;25.30;71.90
55213;DHT22;41083;52.932;6.674;2023-07-08T12:35:42;25.40;72.30
55213;DHT22;41083;52.932;6.674;2023-07-08T12:38:32;25.40;71.70
55213;DHT22;41083;52.932;6.674;2023-07-08T12:41:00;25.50;70.90
55213;DHT22;41083;52.932;6.674;2023-07-08T12:43:26;25.50;72.10
55213;DHT22;41083;52.932;6.674;2023-07-08T12:45:52;25.60;71.80
55213;DHT22;41083;52.932;6.674;2023-07-08T12:48:18;25.60;71.60
55213;DHT22;41083;52.932;6.674;2023-07-08T12:50:43;25.60;71.10
55213;DHT22;41083;52.932;6.674;2023-07-08T12:53:11;25.60;71.10
55213;DHT22;41083;52.932;6.674;2023-07-08T12:55:40;25.70;70.60
55213;DHT22;41083;52.932;6.674;2023-07-08T12:58:12;25.70;69.80
55213;DHT22;41083;52.932;6.674;2023-07-08T13:00:39;25.70;69.50
55213;DHT22;41083;52.932;6.674;2023-07-08T13:03:17;25.70;69.40
55213;DHT22;41083;52.932;6.674;2023-07-08T13:05:44;25.80;68.60
55213;DHT22;41083;52.932;6.674;2023-07-08T13:08:15;25.90;68.00
55213;DHT22;41083;52.932;6.674;2023-07-08T13:10:43;25.90;67.30
55213;DHT22;41083;52.932;6.674;2023-07-08T13:13:13;25.90;67.40
55213;DHT22;41083;52.932;6.674;2023-07-08T13:15:41;26.00;66.90
55213;DHT22;41083;52.932;6.674;2023-07-08T13:18:32;26.00;66.70
55213;DHT22;41083;52.932;6.674;2023-07-08T13:20:59;26.10;64.80
55213;DHT22;41083;52.932;6.674;2023-07-08T13:23:27;26.10;66.40
55213;DHT22;41083;52.932;6.674;2023-07-08T13:25:54;26.10;66.40
55213;DHT22;41083;52.932;6.674;2023-07-08T13:28:35;26.20;66.70
55213;DHT22;41083;52.932;6.674;2023-07-08T13:31:03;26.10;66.70
55213;DHT22;41083;52.932;6.674;2023-07-08T13:33:38;26.20;66.30
55213;DHT22;41083;52.932;6.674;2023-07-08T13:36:04;26.20;66.30
55213;DHT22;41083;52.932;6.674;2023-07-08T13:38:35;26.30;66.00
55213;DHT22;41083;52.932;6.674;2023-07-08T13:41:05;26.30;65.80
55213;DHT22;41083;52.932;6.674;2023-07-08T13:43:33;26.30;65.60
55213;DHT22;41083;52.932;6.674;2023-07-08T13:45:59;26.40;65.40
55213;DHT22;41083;52.932;6.674;2023-07-08T13:48:37;26.40;65.80
55213;DHT22;41083;52.932;6.674;2023-07-08T13:51:08;26.40;65.20
55213;DHT22;41083;52.932;6.674;2023-07-08T13:56:19;26.40;64.90
55213;DHT22;41083;52.932;6.674;2023-07-08T13:58:47;26.40;64.30
55213;DHT22;41083;52.932;6.674;2023-07-08T14:01:23;26.50;64.90
55213;DHT22;41083;52.932;6.674;2023-07-08T14:03:49;26.50;64.30
55213;DHT22;41083;52.932;6.674;2023-07-08T14:06:21;26.50;64.20
55213;DHT22;41083;52.932;6.674;2023-07-08T14:08:47;26.60;63.90
55213;DHT22;41083;52.932;6.674;2023-07-08T14:11:13;26.60;63.50
55213;DHT22;41083;52.932;6.674;2023-07-08T14:13:38;26.50;63.40
55213;DHT22;41083;52.932;6.674;2023-07-08T14:16:24;26.50;63.60
55213;DHT22;41083;52.932;6.674;2023-07-08T14:18:51;26.60;63.40
55213;DHT22;41083;52.932;6.674;2023-07-08T14:21:17;26.60;63.70
55213;DHT22;41083;52.932;6.674;2023-07-08T14:23:43;26.60;63.20
55213;DHT22;41083;52.932;6.674;2023-07-08T14:26:12;26.60;62.40
55213;DHT22;41083;52.932;6.674;2023-07-08T14:28:38;26.70;61.60
55213;DHT22;41083;52.932;6.674;2023-07-08T14:31:12;26.70;61.70
55213;DHT22;41083;52.932;6.674;2023-07-08T14:33:38;26.70;61.40
55213;DHT22;41083;52.932;6.674;2023-07-08T14:36:10;26.70;61.60
55213;DHT22;41083;52.932;6.674;2023-07-08T14:38:37;26.80;61.40
55213;DHT22;41083;52.932;6.674;2023-07-08T14:41:02;26.80;61.60
55213;DHT22;41083;52.932;6.674;2023-07-08T14:43:30;26.80;60.50
55213;DHT22;41083;52.932;6.674;2023-07-08T14:45:58;26.90;59.70
55213;DHT22;41083;52.932;6.674;2023-07-08T14:48:26;26.90;59.30
55213;DHT22;41083;52.932;6.674;2023-07-08T14:50:52;26.90;59.10
55213;DHT22;41083;52.932;6.674;2023-07-08T14:53:18;26.90;59.00
55213;DHT22;41083;52.932;6.674;2023-07-08T14:55:45;27.00;59.20
55213;DHT22;41083;52.932;6.674;2023-07-08T14:58:24;27.00;59.40
55213;DHT22;41083;52.932;6.674;2023-07-08T15:00:56;27.00;59.20
55213;DHT22;41083;52.932;6.674;2023-07-08T15:03:23;27.00;59.40
55213;DHT22;41083;52.932;6.674;2023-07-08T15:05:49;27.00;59.40
55213;DHT22;41083;52.932;6.674;2023-07-08T15:08:15;27.00;59.40
55213;DHT22;41083;52.932;6.674;2023-07-08T15:10:46;27.10;59.20
55213;DHT22;41083;52.932;6.674;2023-07-08T15:13:12;27.00;59.10
55213;DHT22;41083;52.932;6.674;2023-07-08T15:15:38;27.10;59.30
55213;DHT22;41083;52.932;6.674;2023-07-08T15:18:15;27.10;59.30
55213;DHT22;41083;52.932;6.674;2023-07-08T15:20:41;27.10;59.00
55213;DHT22;41083;52.932;6.674;2023-07-08T15:23:07;27.10;58.90
55213;DHT22;41083;52.932;6.674;2023-07-08T15:25:34;27.10;58.90
55213;DHT22;41083;52.932;6.674;2023-07-08T15:28:01;27.10;58.50
55213;DHT22;41083;52.932;6.674;2023-07-08T15:30:29;27.10;58.50
55213;DHT22;41083;52.932;6.674;2023-07-08T15:32:55;27.10;58.80
55213;DHT22;41083;52.932;6.674;2023-07-08T15:35:28;27.10;59.10
55213;DHT22;41083;52.932;6.674;2023-07-08T15:37:59;27.20;59.30
55213;DHT22;41083;52.932;6.674;2023-07-08T15:40:31;27.20;59.10
55213;DHT22;41083;52.932;6.674;2023-07-08T15:42:58;27.20;58.50
55213;DHT22;41083;52.932;6.674;2023-07-08T15:45:32;27.20;58.20
55213;DHT22;41083;52.932;6.674;2023-07-08T15:47:59;27.20;58.20
55213;DHT22;41083;52.932;6.674;2023-07-08T15:50:26;27.30;58.00
55213;DHT22;41083;52.932;6.674;2023-07-08T15:52:53;27.30;57.70
55213;DHT22;41083;52.932;6.674;2023-07-08T15:55:30;27.30;57.30
55213;DHT22;41083;52.932;6.674;2023-07-08T15:58:03;27.40;56.80
55213;DHT22;41083;52.932;6.674;2023-07-08T16:00:32;27.40;56.80
55213;DHT22;41083;52.932;6.674;2023-07-08T16:03:04;27.50;56.40
55213;DHT22;41083;52.932;6.674;2023-07-08T16:05:31;27.50;56.10
55213;DHT22;41083;52.932;6.674;2023-07-08T16:07:59;27.50;56.20
55213;DHT22;41083;52.932;6.674;2023-07-08T16:10:25;27.60;55.90
55213;DHT22;41083;52.932;6.674;2023-07-08T16:12:51;27.60;55.80
55213;DHT22;41083;52.932;6.674;2023-07-08T16:15:29;27.70;55.60
55213;DHT22;41083;52.932;6.674;2023-07-08T16:17:56;27.70;55.10
55213;DHT22;41083;52.932;6.674;2023-07-08T16:20:25;27.80;55.30
55213;DHT22;41083;52.932;6.674;2023-07-08T16:22:51;27.80;55.10
55213;DHT22;41083;52.932;6.674;2023-07-08T16:25:19;27.80;55.00
55213;DHT22;41083;52.932;6.674;2023-07-08T16:27:47;27.80;54.90
55213;DHT22;41083;52.932;6.674;2023-07-08T16:30:18;27.90;54.80
55213;DHT22;41083;52.932;6.674;2023-07-08T16:32:46;27.90;54.90